createdAt,value
2023-05-04T00:00:08.456Z,3.13
2023-05-04T00:02:35.895Z,2.42
2023-05-04T00:05:06.003Z,2.78
2023-05-04T00:07:33.317Z,2.78
2023-05-04T00:10:01.239Z,2.60
2023-05-04T00:12:28.913Z,2.33
2023-05-04T00:14:56.381Z,2.80
2023-05-04T00:17:23.645Z,3.15
2023-05-04T00:19:50.977Z,2.70
2023-05-04T00:22:18.278Z,2.85
2023-05-04T00:24:45.950Z,2.60
2023-05-04T00:27:13.255Z,2.65
2023-05-04T00:29:40.642Z,2.47
2023-05-04T00:32:09.092Z,2.50
2023-05-04T00:34:36.496Z,3.65
2023-05-04T00:37:03.876Z,3.40
2023-05-04T00:39:31.140Z,2.97
2023-05-04T00:41:58.467Z,2.80
2023-05-04T00:44:26.130Z,2.88
2023-05-04T00:46:53.779Z,2.63
2023-05-04T00:49:21.844Z,2.95
2023-05-04T00:51:50.123Z,2.90
2023-05-04T00:54:21.012Z,2.72
2023-05-04T00:56:49.182Z,2.72
2023-05-04T00:59:16.550Z,2.72
2023-05-04T01:01:43.911Z,3.13
2023-05-04T01:04:12.065Z,2.70
2023-05-04T01:06:48.031Z,3.50
2023-05-04T01:09:23.117Z,3.40
2023-05-04T01:12:11.890Z,3.20
2023-05-04T01:14:41.619Z,3.55
2023-05-04T01:17:09.520Z,2.80
2023-05-04T01:19:37.000Z,4.03
2023-05-04T01:22:04.267Z,3.00
2023-05-04T01:24:32.070Z,3.47
2023-05-04T01:27:11.712Z,3.20
2023-05-04T01:29:43.938Z,2.85
2023-05-04T01:32:14.253Z,3.70
2023-05-04T01:34:42.097Z,2.90
2023-05-04T01:37:09.745Z,3.08
2023-05-04T01:39:36.994Z,3.10
2023-05-04T01:42:05.005Z,3.75
2023-05-04T01:44:32.300Z,2.80
2023-05-04T01:46:59.598Z,3.17
2023-05-04T01:49:26.910Z,3.15
2023-05-04T01:51:54.258Z,3.33
2023-05-04T01:54:21.573Z,2.92
2023-05-04T01:56:48.913Z,3.50
2023-05-04T01:59:16.235Z,3.58
2023-05-04T02:01:43.585Z,3.78
2023-05-04T02:04:11.107Z,3.00
2023-05-04T02:06:38.898Z,3.50
2023-05-04T02:09:06.221Z,3.22
2023-05-04T02:11:33.696Z,3.03
2023-05-04T02:14:00.997Z,4.03
2023-05-04T02:16:28.404Z,3.58
2023-05-04T02:18:56.032Z,3.40
2023-05-04T02:21:23.352Z,3.67
2023-05-04T02:23:50.633Z,3.20
2023-05-04T02:26:17.922Z,3.25
2023-05-04T02:28:45.216Z,3.20
2023-05-04T02:31:12.513Z,3.22
2023-05-04T02:33:39.821Z,3.30
2023-05-04T02:36:07.409Z,3.20
2023-05-04T02:38:34.662Z,4.20
2023-05-04T02:41:01.926Z,3.33
2023-05-04T02:43:29.222Z,3.72
2023-05-04T02:45:56.736Z,3.95
2023-05-04T02:48:25.398Z,3.40
2023-05-04T02:50:52.716Z,3.50
2023-05-04T02:53:19.981Z,3.50
2023-05-04T02:55:47.234Z,3.42
2023-05-04T02:58:14.549Z,3.72
2023-05-04T03:00:42.195Z,3.55
2023-05-04T03:03:09.554Z,3.42
2023-05-04T03:05:36.922Z,3.67
2023-05-04T03:08:04.357Z,3.53
2023-05-04T03:10:31.637Z,3.80
2023-05-04T03:13:03.765Z,3.65
2023-05-04T03:15:31.368Z,3.28
2023-05-04T03:17:58.880Z,3.42
2023-05-04T03:20:26.394Z,3.28
2023-05-04T03:22:53.695Z,3.20
2023-05-04T03:25:21.221Z,3.58
2023-05-04T03:27:48.530Z,3.60
2023-05-04T03:30:16.208Z,3.45
2023-05-04T03:32:43.585Z,3.40
2023-05-04T03:35:10.918Z,3.70
2023-05-04T03:37:38.202Z,4.43
2023-05-04T03:40:06.396Z,3.92
2023-05-04T03:42:33.878Z,3.35
2023-05-04T03:45:03.286Z,3.58
2023-05-04T03:47:31.469Z,3.33
2023-05-04T03:49:58.776Z,3.60
2023-05-04T03:52:26.059Z,3.65
2023-05-04T03:54:53.318Z,3.80
2023-05-04T03:57:22.338Z,3.55
2023-05-04T03:59:49.934Z,4.00
2023-05-04T04:02:17.564Z,3.53
2023-05-04T04:04:44.968Z,3.50
2023-05-04T04:07:12.211Z,4.03
2023-05-04T04:09:39.552Z,3.75
2023-05-04T04:12:06.880Z,3.17
2023-05-04T04:14:34.153Z,4.00
2023-05-04T04:17:01.412Z,3.60
2023-05-04T04:19:28.798Z,5.20
2023-05-04T04:21:58.206Z,3.92
2023-05-04T04:24:25.895Z,3.83
2023-05-04T04:26:53.375Z,3.65
2023-05-04T04:29:20.669Z,3.47
2023-05-04T04:31:47.940Z,3.80
2023-05-04T04:34:15.270Z,3.53
2023-05-04T04:36:42.533Z,3.83
2023-05-04T04:39:10.162Z,4.18
2023-05-04T04:41:37.459Z,3.42
2023-05-04T04:44:05.081Z,3.63
2023-05-04T04:46:32.400Z,3.67
2023-05-04T04:48:59.738Z,3.50
2023-05-04T04:51:27.116Z,4.47
2023-05-04T04:53:54.336Z,4.03
2023-05-04T04:56:22.514Z,3.72
2023-05-04T04:58:50.916Z,3.78
2023-05-04T05:01:18.855Z,4.53
2023-05-04T05:03:46.667Z,3.58
2023-05-04T05:06:14.314Z,3.60
2023-05-04T05:08:42.632Z,3.72
2023-05-04T05:11:10.382Z,3.70
2023-05-04T05:13:37.659Z,3.58
2023-05-04T05:16:05.280Z,4.70
2023-05-04T05:18:33.023Z,3.30
2023-05-04T05:21:00.821Z,3.90
2023-05-04T05:23:28.240Z,3.28
2023-05-04T05:25:56.674Z,3.92
2023-05-04T05:28:24.255Z,3.95
2023-05-04T05:30:52.155Z,3.60
2023-05-04T05:33:19.670Z,3.28
2023-05-04T05:35:46.921Z,4.00
2023-05-04T05:38:16.121Z,3.55
2023-05-04T05:40:43.391Z,3.40
2023-05-04T05:43:10.724Z,3.50
2023-05-04T05:45:37.968Z,3.50
2023-05-04T05:48:05.958Z,3.78
2023-05-04T05:50:33.909Z,4.40
2023-05-04T05:53:01.346Z,3.53
2023-05-04T05:55:28.594Z,3.60
2023-05-04T05:57:56.055Z,3.50
2023-05-04T06:00:24.306Z,3.03
2023-05-04T06:02:52.692Z,2.95
2023-05-04T06:05:20.214Z,3.42
2023-05-04T06:07:47.511Z,4.00
2023-05-04T06:10:15.274Z,3.17
2023-05-04T06:12:42.605Z,3.80
2023-05-04T06:15:10.270Z,4.05
2023-05-04T06:17:37.568Z,3.22
2023-05-04T06:20:05.477Z,5.78
2023-05-04T06:22:33.225Z,5.90
2023-05-04T06:25:03.770Z,4.75
2023-05-04T06:27:33.721Z,5.90
2023-05-04T06:30:01.273Z,4.82
2023-05-04T06:32:28.707Z,5.18
2023-05-04T06:34:56.357Z,6.57
2023-05-04T06:37:23.635Z,5.00
2023-05-04T06:39:50.972Z,5.68
2023-05-04T06:42:18.326Z,7.13
2023-05-04T06:44:45.676Z,4.95
2023-05-04T06:47:12.953Z,5.35
2023-05-04T06:49:40.292Z,6.68
2023-05-04T06:52:07.608Z,4.60
2023-05-04T06:54:34.927Z,5.35
2023-05-04T06:57:03.465Z,6.10
2023-05-04T06:59:30.786Z,5.68
2023-05-04T07:01:58.219Z,5.20
2023-05-04T07:04:25.732Z,5.25
2023-05-04T07:06:53.513Z,7.07
2023-05-04T07:09:21.265Z,4.22
2023-05-04T07:11:48.647Z,5.03
2023-05-04T07:14:16.276Z,4.40
2023-05-04T07:16:43.747Z,5.68
2023-05-04T07:19:11.197Z,5.63
2023-05-04T07:21:38.526Z,5.57
2023-05-04T07:24:06.991Z,5.47
2023-05-04T07:26:34.456Z,6.25
2023-05-04T07:29:01.719Z,5.18
2023-05-04T07:31:30.640Z,6.32
2023-05-04T07:33:58.211Z,7.43
2023-05-04T07:36:26.700Z,5.97
2023-05-04T07:38:54.468Z,6.60
2023-05-04T07:41:21.898Z,5.15
2023-05-04T07:43:49.218Z,6.63
2023-05-04T07:46:16.572Z,7.00
2023-05-04T07:48:43.958Z,5.28
2023-05-04T07:51:14.829Z,6.18
2023-05-04T07:53:43.219Z,6.47
2023-05-04T07:56:13.753Z,5.57
2023-05-04T07:58:41.962Z,5.10
2023-05-04T08:01:09.325Z,5.50
2023-05-04T08:03:36.687Z,5.60
2023-05-04T08:06:04.011Z,4.80
2023-05-04T08:08:31.360Z,5.32
2023-05-04T08:11:11.642Z,5.05
2023-05-04T08:13:46.777Z,4.75
2023-05-04T08:16:14.145Z,6.00
2023-05-04T08:18:42.003Z,6.72
2023-05-04T08:21:09.377Z,7.18
2023-05-04T08:23:36.781Z,5.68
2023-05-04T08:26:04.675Z,6.40
2023-05-04T08:28:36.429Z,4.63
2023-05-04T08:31:04.077Z,7.82
2023-05-04T08:33:32.047Z,4.88
2023-05-04T08:35:59.561Z,7.53
2023-05-04T08:38:26.917Z,8.38
2023-05-04T08:40:54.664Z,5.97
2023-05-04T08:43:22.108Z,7.95
2023-05-04T08:45:50.413Z,6.35
2023-05-04T08:48:18.008Z,18.55
2023-05-04T08:50:45.966Z,9.48
2023-05-04T08:53:14.788Z,10.55
2023-05-04T08:55:43.993Z,8.68
2023-05-04T08:58:13.038Z,9.48
2023-05-04T09:00:41.218Z,9.52
2023-05-04T09:03:10.901Z,7.75
2023-05-04T09:05:38.759Z,9.68
2023-05-04T09:08:06.856Z,10.77
2023-05-04T09:10:34.712Z,5.80
2023-05-04T09:13:02.144Z,7.68
2023-05-04T09:15:29.502Z,6.10
2023-05-04T09:17:58.488Z,5.95
2023-05-04T09:20:26.132Z,7.30
2023-05-04T09:23:09.484Z,5.75
2023-05-04T09:25:54.050Z,7.28
2023-05-04T09:28:43.020Z,10.48
2023-05-04T09:31:11.866Z,6.90
2023-05-04T09:33:39.364Z,5.72
2023-05-04T09:36:21.216Z,6.20
2023-05-04T09:38:48.968Z,6.68
2023-05-04T09:41:16.502Z,4.82
2023-05-04T09:43:44.920Z,4.03
2023-05-04T09:46:18.770Z,6.20
2023-05-04T09:48:56.994Z,4.93
2023-05-04T09:51:26.441Z,4.18
2023-05-04T09:53:54.439Z,5.60
2023-05-04T09:56:38.498Z,7.00
2023-05-04T09:59:05.972Z,6.70
2023-05-04T10:01:33.756Z,4.68
2023-05-04T10:04:02.902Z,5.15
2023-05-04T10:06:30.647Z,5.45
2023-05-04T10:09:00.725Z,4.35
2023-05-04T10:11:28.597Z,4.15
2023-05-04T10:13:59.397Z,4.72
2023-05-04T10:16:33.384Z,6.15
2023-05-04T10:19:12.534Z,5.65
2023-05-04T10:21:55.690Z,4.45
2023-05-04T10:25:08.323Z,3.35
2023-05-04T10:27:57.405Z,6.38
2023-05-04T10:30:24.926Z,11.65
2023-05-04T10:32:57.378Z,5.78
2023-05-04T10:35:25.592Z,6.80
2023-05-04T10:37:56.832Z,3.80
2023-05-04T10:40:40.132Z,5.00
2023-05-04T10:43:08.584Z,6.15
2023-05-04T10:45:37.721Z,4.22
2023-05-04T10:48:05.916Z,5.05
2023-05-04T10:50:47.222Z,5.38
2023-05-04T10:53:16.886Z,4.53
2023-05-04T10:55:48.607Z,4.43
2023-05-04T10:58:27.763Z,4.20
2023-05-04T11:00:55.203Z,6.05
2023-05-04T11:03:23.436Z,4.07
2023-05-04T11:05:54.365Z,4.38
2023-05-04T11:08:24.274Z,4.53
2023-05-04T11:11:03.620Z,5.65
2023-05-04T11:13:33.835Z,2.70
2023-05-04T11:16:01.725Z,4.03
2023-05-04T11:18:41.174Z,3.55
2023-05-04T11:21:09.505Z,4.57
2023-05-04T11:23:38.277Z,2.95
2023-05-04T11:26:08.007Z,4.13
2023-05-04T11:28:37.974Z,3.47
2023-05-04T11:31:15.626Z,2.75
2023-05-04T11:33:54.568Z,10.82
2023-05-04T11:36:23.035Z,9.07
2023-05-04T11:38:50.941Z,3.30
2023-05-04T11:41:18.304Z,2.40
2023-05-04T11:43:47.097Z,2.65
2023-05-04T11:46:16.586Z,3.35
2023-05-04T11:48:44.316Z,2.63
2023-05-04T11:51:11.747Z,4.53
2023-05-04T11:53:40.620Z,4.15
2023-05-04T11:56:09.075Z,3.55
2023-05-04T11:58:37.195Z,3.65
2023-05-04T12:01:04.735Z,4.47
2023-05-04T12:06:05.161Z,6.40
2023-05-04T12:08:34.924Z,6.43
2023-05-04T12:11:25.228Z,8.43
2023-05-04T12:14:06.182Z,3.40
2023-05-04T12:16:34.139Z,4.43
2023-05-04T12:19:12.917Z,4.00
2023-05-04T12:21:54.426Z,3.30
2023-05-04T12:24:23.415Z,6.55
2023-05-04T12:26:51.242Z,3.30
2023-05-04T12:29:18.630Z,3.38
2023-05-04T12:31:46.063Z,3.97
2023-05-04T12:34:13.561Z,3.42
2023-05-04T12:36:40.889Z,4.82
2023-05-04T12:39:08.242Z,6.10
2023-05-04T12:41:36.056Z,4.05
2023-05-04T12:44:03.394Z,3.65
2023-05-04T12:46:30.924Z,3.88
2023-05-04T12:48:58.320Z,4.28
2023-05-04T12:51:25.737Z,3.83
2023-05-04T12:53:53.044Z,5.20
2023-05-04T12:56:20.359Z,6.80
2023-05-04T12:58:47.629Z,4.05
2023-05-04T13:01:14.876Z,4.68
2023-05-04T13:03:42.446Z,5.05
2023-05-04T13:06:10.191Z,4.50
2023-05-04T13:08:37.675Z,3.92
2023-05-04T13:11:05.197Z,4.25
2023-05-04T13:13:33.375Z,5.90
2023-05-04T13:16:00.733Z,5.30
2023-05-04T13:18:29.000Z,5.20
2023-05-04T13:20:56.669Z,4.43
2023-05-04T13:23:24.370Z,6.20
2023-05-04T13:25:52.533Z,4.95
2023-05-04T13:28:20.077Z,4.78
2023-05-04T13:30:47.581Z,3.53
2023-05-04T13:33:27.846Z,4.93
2023-05-04T13:35:57.970Z,4.05
2023-05-04T13:38:25.783Z,4.90
2023-05-04T13:40:53.287Z,5.10
2023-05-04T13:43:21.345Z,4.70
2023-05-04T13:45:48.711Z,3.80
2023-05-04T13:48:16.061Z,4.35
2023-05-04T13:50:43.348Z,4.18
2023-05-04T13:53:13.651Z,4.35
2023-05-04T13:55:40.940Z,5.00
2023-05-04T13:58:08.205Z,4.63
2023-05-04T14:00:35.885Z,3.47
2023-05-04T14:03:03.600Z,6.45
2023-05-04T14:05:31.047Z,6.03
2023-05-04T14:07:58.425Z,5.13
2023-05-04T14:10:25.894Z,4.03
2023-05-04T14:12:53.204Z,6.70
2023-05-04T14:15:22.988Z,10.15
2023-05-04T14:17:50.617Z,4.00
2023-05-04T14:20:18.336Z,4.43
2023-05-04T14:22:45.717Z,4.35
2023-05-04T14:25:13.390Z,10.43
2023-05-04T14:27:42.049Z,8.07
2023-05-04T14:30:09.898Z,8.82
2023-05-04T14:32:37.525Z,5.22
2023-05-04T14:35:09.780Z,5.85
2023-05-04T14:37:38.814Z,6.45
2023-05-04T14:40:07.874Z,5.20
2023-05-04T14:42:36.950Z,4.82
2023-05-04T14:45:05.288Z,3.30
2023-05-04T14:47:33.739Z,4.03
2023-05-04T14:50:02.370Z,4.20
2023-05-04T14:52:29.794Z,4.13
2023-05-04T14:54:57.156Z,3.78
2023-05-04T14:57:24.786Z,3.58
2023-05-04T14:59:52.229Z,3.47
2023-05-04T15:02:19.618Z,4.10
2023-05-04T15:04:47.152Z,4.88
2023-05-04T15:07:16.228Z,7.85
2023-05-04T15:09:43.687Z,3.33
2023-05-04T15:12:11.174Z,4.85
2023-05-04T15:14:38.683Z,3.65
2023-05-04T15:17:07.322Z,2.97
2023-05-04T15:19:38.110Z,7.45
2023-05-04T15:22:06.530Z,6.78
2023-05-04T15:24:33.960Z,3.92
2023-05-04T15:27:02.031Z,6.43
2023-05-04T15:29:29.573Z,4.90
2023-05-04T15:31:57.206Z,5.05
2023-05-04T15:34:24.564Z,3.92
2023-05-04T15:36:52.529Z,5.90
2023-05-04T15:39:19.771Z,4.20
2023-05-04T15:41:47.307Z,5.35
2023-05-04T15:44:14.595Z,3.05
2023-05-04T15:46:41.948Z,5.70
2023-05-04T15:49:09.418Z,3.80
2023-05-04T15:51:36.759Z,4.80
2023-05-04T15:54:04.215Z,4.05
2023-05-04T15:56:31.579Z,5.00
2023-05-04T15:58:58.857Z,4.38
2023-05-04T16:01:26.184Z,4.75
2023-05-04T16:03:59.657Z,9.10
2023-05-04T16:06:28.029Z,5.93
2023-05-04T16:08:55.516Z,6.32
2023-05-04T16:11:22.844Z,6.25
2023-05-04T16:13:50.096Z,6.22
2023-05-04T16:16:17.441Z,4.78
2023-05-04T16:18:44.813Z,5.55
2023-05-04T16:21:14.111Z,5.57
2023-05-04T16:23:41.504Z,5.93
2023-05-04T16:26:08.905Z,3.78
2023-05-04T16:28:36.826Z,4.78
2023-05-04T16:31:09.624Z,6.65
2023-05-04T16:33:38.561Z,5.88
2023-05-04T16:36:06.856Z,4.32
2023-05-04T16:38:34.139Z,3.75
2023-05-04T16:41:01.514Z,3.15
2023-05-04T16:43:28.888Z,4.70
2023-05-04T16:45:56.145Z,3.35
2023-05-04T16:48:23.472Z,3.25
2023-05-04T16:50:50.802Z,4.60
2023-05-04T16:53:18.115Z,4.05
2023-05-04T16:55:45.458Z,2.72
2023-05-04T16:58:12.741Z,3.95
2023-05-04T17:00:43.423Z,3.85
2023-05-04T17:03:10.887Z,3.95
2023-05-04T17:05:38.290Z,3.65
2023-05-04T17:08:05.721Z,5.03
2023-05-04T17:10:33.102Z,3.17
2023-05-04T17:13:02.246Z,4.30
2023-05-04T17:15:30.028Z,2.30
2023-05-04T17:17:57.453Z,6.13
2023-05-04T17:20:28.761Z,2.40
2023-05-04T17:22:58.596Z,2.58
2023-05-04T17:25:27.310Z,3.47
2023-05-04T17:27:55.044Z,3.25
2023-05-04T17:30:22.706Z,2.70
2023-05-04T17:32:50.086Z,2.53
2023-05-04T17:35:25.294Z,2.58
2023-05-04T17:37:57.003Z,3.17
2023-05-04T17:40:27.372Z,3.03
2023-05-04T17:42:55.320Z,2.53
2023-05-04T17:45:22.935Z,3.05
2023-05-04T17:47:51.716Z,3.15
2023-05-04T17:50:19.332Z,3.78
2023-05-04T17:52:52.457Z,2.50
2023-05-04T17:55:19.848Z,2.17
2023-05-04T17:57:47.138Z,2.40
2023-05-04T18:00:14.949Z,2.20
2023-05-04T18:02:42.383Z,2.15
2023-05-04T18:05:09.952Z,1.83
2023-05-04T18:07:37.222Z,2.38
2023-05-04T18:10:04.883Z,2.28
2023-05-04T18:12:32.656Z,1.83
2023-05-04T18:15:00.315Z,2.22
2023-05-04T18:17:29.333Z,2.08
2023-05-04T18:19:56.829Z,1.85
2023-05-04T18:22:24.095Z,1.73
2023-05-04T18:24:51.747Z,3.20
2023-05-04T18:27:19.395Z,2.10
2023-05-04T18:29:47.217Z,4.63
2023-05-04T18:32:14.646Z,2.28
2023-05-04T18:34:42.103Z,1.80
2023-05-04T18:37:09.656Z,2.50
2023-05-04T18:39:38.002Z,1.70
2023-05-04T18:42:05.352Z,2.35
2023-05-04T18:44:32.595Z,1.80
2023-05-04T18:47:00.021Z,2.55
2023-05-04T18:49:27.400Z,2.15
2023-05-04T18:51:54.649Z,2.10
2023-05-04T18:54:21.998Z,2.30
2023-05-04T18:56:49.303Z,1.55
2023-05-04T18:59:16.733Z,1.60
2023-05-04T19:01:44.155Z,1.58
2023-05-04T19:04:11.524Z,1.80
2023-05-04T19:06:38.770Z,2.17
2023-05-04T19:09:08.053Z,1.70
2023-05-04T19:11:35.774Z,2.78
2023-05-04T19:14:03.133Z,2.50
2023-05-04T19:16:30.681Z,1.77
2023-05-04T19:18:58.006Z,2.53
2023-05-04T19:21:25.388Z,2.03
2023-05-04T19:23:52.725Z,2.17
2023-05-04T19:26:20.174Z,2.08
2023-05-04T19:28:47.493Z,2.10
2023-05-04T19:31:15.017Z,1.83
2023-05-04T19:33:48.466Z,2.03
2023-05-04T19:36:17.119Z,2.00
2023-05-04T19:38:44.656Z,2.13
2023-05-04T19:41:12.172Z,1.98
2023-05-04T19:43:39.538Z,1.90
2023-05-04T19:46:07.151Z,2.28
2023-05-04T19:48:34.479Z,2.33
2023-05-04T19:51:02.231Z,1.65
2023-05-04T19:53:31.119Z,2.38
2023-05-04T19:55:58.813Z,2.35
2023-05-04T19:58:28.087Z,2.50
2023-05-04T20:00:55.381Z,1.90
2023-05-04T20:03:23.015Z,2.60
2023-05-04T20:05:52.127Z,2.30
2023-05-04T20:08:19.579Z,2.10
2023-05-04T20:10:46.938Z,2.33
2023-05-04T20:13:14.789Z,2.13
2023-05-04T20:15:42.624Z,3.13
2023-05-04T20:18:10.092Z,2.40
2023-05-04T20:20:37.404Z,2.40
2023-05-04T20:23:04.676Z,2.33
2023-05-04T20:25:32.432Z,2.30
2023-05-04T20:27:59.892Z,2.63
2023-05-04T20:30:28.766Z,2.17
2023-05-04T20:32:56.251Z,2.85
2023-05-04T20:35:23.773Z,2.83
2023-05-04T20:37:51.008Z,2.60
2023-05-04T20:40:18.435Z,2.65
2023-05-04T20:42:45.680Z,2.67
2023-05-04T20:45:13.341Z,4.45
2023-05-04T20:47:40.732Z,2.47
2023-05-04T20:50:10.223Z,3.13
2023-05-04T20:52:38.492Z,4.20
2023-05-04T20:55:07.747Z,3.35
2023-05-04T20:57:35.217Z,2.63
2023-05-04T21:00:03.284Z,3.08
2023-05-04T21:02:30.575Z,4.05
2023-05-04T21:04:57.904Z,2.75
2023-05-04T21:07:25.253Z,4.75
2023-05-04T21:09:57.743Z,3.00
2023-05-04T21:12:25.928Z,3.33
2023-05-04T21:14:53.291Z,3.42
2023-05-04T21:17:20.689Z,3.28
2023-05-04T21:19:47.988Z,4.90
2023-05-04T21:22:17.620Z,2.47
2023-05-04T21:24:46.533Z,3.72
2023-05-04T21:27:14.231Z,3.00
2023-05-04T21:29:41.551Z,3.50
2023-05-04T21:32:08.952Z,3.85
2023-05-04T21:34:36.296Z,3.33
2023-05-04T21:37:04.267Z,3.55
2023-05-04T21:39:31.797Z,4.05
2023-05-04T21:41:59.176Z,2.80
2023-05-04T21:44:26.445Z,4.20
2023-05-04T21:46:53.933Z,3.75
2023-05-04T21:49:21.246Z,3.00
2023-05-04T21:51:49.213Z,3.22
2023-05-04T21:54:16.524Z,3.30
2023-05-04T21:56:43.835Z,5.25
2023-05-04T21:59:11.275Z,4.50
2023-05-04T22:01:38.622Z,3.60
2023-05-04T22:04:09.557Z,3.45
2023-05-04T22:06:37.678Z,3.42
2023-05-04T22:09:05.142Z,3.53
2023-05-04T22:11:32.442Z,3.45
2023-05-04T22:13:59.733Z,3.90
2023-05-04T22:16:27.212Z,3.72
2023-05-04T22:18:54.599Z,3.45
2023-05-04T22:21:21.877Z,3.70
2023-05-04T22:23:49.160Z,4.55
2023-05-04T22:26:16.411Z,4.53
2023-05-04T22:28:43.716Z,4.40
2023-05-04T22:31:11.055Z,4.47
2023-05-04T22:33:38.332Z,4.15
2023-05-04T22:36:05.884Z,4.40
2023-05-04T22:38:33.152Z,4.05
2023-05-04T22:41:00.612Z,4.05
2023-05-04T22:43:28.153Z,3.83
2023-05-04T22:45:55.534Z,4.43
2023-05-04T22:48:22.964Z,4.00
2023-05-04T22:50:50.820Z,3.63
2023-05-04T22:53:18.050Z,4.00
2023-05-04T22:55:45.298Z,3.75
2023-05-04T22:58:12.585Z,3.53
2023-05-04T23:00:39.932Z,4.10
2023-05-04T23:03:07.586Z,3.83
2023-05-04T23:05:35.266Z,4.28
2023-05-04T23:08:03.728Z,5.18
2023-05-04T23:10:31.001Z,4.28
2023-05-04T23:12:58.313Z,5.22
2023-05-04T23:15:25.732Z,6.25
2023-05-04T23:17:53.640Z,7.22
2023-05-04T23:20:21.087Z,7.95
2023-05-04T23:22:48.390Z,8.73
2023-05-04T23:25:15.912Z,9.13
2023-05-04T23:27:44.292Z,11.18
2023-05-04T23:30:11.757Z,5.60
2023-05-04T23:32:39.167Z,6.38
2023-05-04T23:35:07.560Z,4.80
2023-05-04T23:37:34.895Z,4.32
2023-05-04T23:40:02.254Z,4.85
2023-05-04T23:42:29.780Z,3.58
2023-05-04T23:44:57.033Z,4.00
2023-05-04T23:47:24.332Z,3.13
2023-05-04T23:49:51.657Z,3.55
2023-05-04T23:52:19.044Z,3.63
2023-05-04T23:54:46.648Z,3.17
2023-05-04T23:57:13.905Z,3.45
2023-05-04T23:59:42.010Z,3.97
